sensor_id;sensor_type;location;lat;lon;timestamp;P1;durP1;ratioP1;P2;durP2;ratioP2
46717;SDS011;32448;44.960;-0.698;2024-03-17T00:01:47;6.75;;;2.83;;
46717;SDS011;32448;44.960;-0.698;2024-03-17T00:04:12;7.25;;;2.85;;
46717;SDS011;32448;44.960;-0.698;2024-03-17T00:06:38;6.93;;;3.10;;
46717;SDS011;32448;44.960;-0.698;2024-03-17T00:09:04;6.25;;;2.95;;
46717;SDS011;32448;44.960;-0.698;2024-03-17T00:11:34;5.55;;;3.08;;
46717;SDS011;32448;44.960;-0.698;2024-03-17T00:14:01;8.00;;;3.05;;
46717;SDS011;32448;44.960;-0.698;2024-03-17T00:16:27;8.05;;;3.05;;
46717;SDS011;32448;44.960;-0.698;2024-03-17T00:18:53;6.10;;;2.92;;
46717;SDS011;32448;44.960;-0.698;2024-03-17T00:21:21;8.40;;;2.92;;
46717;SDS011;32448;44.960;-0.698;2024-03-17T00:23:50;7.55;;;2.97;;
46717;SDS011;32448;44.960;-0.698;2024-03-17T00:26:16;6.57;;;2.83;;
46717;SDS011;32448;44.960;-0.698;2024-03-17T00:28:42;9.60;;;3.17;;
46717;SDS011;32448;44.960;-0.698;2024-03-17T00:31:12;6.82;;;3.40;;
46717;SDS011;32448;44.960;-0.698;2024-03-17T00:33:40;6.57;;;3.03;;
46717;SDS011;32448;44.960;-0.698;2024-03-17T00:36:06;6.63;;;2.75;;
46717;SDS011;32448;44.960;-0.698;2024-03-17T00:38:32;8.70;;;3.00;;
46717;SDS011;32448;44.960;-0.698;2024-03-17T00:40:59;8.00;;;3.22;;
46717;SDS011;32448;44.960;-0.698;2024-03-17T00:43:25;6.25;;;2.75;;
46717;SDS011;32448;44.960;-0.698;2024-03-17T00:45:51;8.30;;;3.30;;
46717;SDS011;32448;44.960;-0.698;2024-03-17T00:48:17;9.65;;;2.92;;
46717;SDS011;32448;44.960;-0.698;2024-03-17T00:50:43;6.07;;;2.80;;
46717;SDS011;32448;44.960;-0.698;2024-03-17T00:53:10;8.65;;;3.50;;
46717;SDS011;32448;44.960;-0.698;2024-03-17T00:55:36;7.25;;;3.10;;
46717;SDS011;32448;44.960;-0.698;2024-03-17T00:58:03;7.57;;;3.00;;
46717;SDS011;32448;44.960;-0.698;2024-03-17T01:00:29;6.68;;;3.08;;
46717;SDS011;32448;44.960;-0.698;2024-03-17T01:02:58;9.55;;;2.50;;
46717;SDS011;32448;44.960;-0.698;2024-03-17T01:05:24;4.95;;;2.33;;
46717;SDS011;32448;44.960;-0.698;2024-03-17T01:07:50;7.30;;;3.33;;
46717;SDS011;32448;44.960;-0.698;2024-03-17T01:10:16;6.90;;;2.88;;
46717;SDS011;32448;44.960;-0.698;2024-03-17T01:12:42;5.25;;;2.63;;
46717;SDS011;32448;44.960;-0.698;2024-03-17T01:15:08;8.77;;;2.90;;
46717;SDS011;32448;44.960;-0.698;2024-03-17T01:17:34;7.15;;;2.50;;
46717;SDS011;32448;44.960;-0.698;2024-03-17T01:20:00;8.25;;;2.85;;
46717;SDS011;32448;44.960;-0.698;2024-03-17T01:22:25;6.85;;;2.60;;
46717;SDS011;32448;44.960;-0.698;2024-03-17T01:24:51;9.57;;;2.70;;
46717;SDS011;32448;44.960;-0.698;2024-03-17T01:27:17;8.18;;;3.00;;
46717;SDS011;32448;44.960;-0.698;2024-03-17T01:29:43;9.05;;;2.85;;
46717;SDS011;32448;44.960;-0.698;2024-03-17T01:32:09;7.57;;;2.63;;
46717;SDS011;32448;44.960;-0.698;2024-03-17T01:34:39;7.75;;;2.53;;
46717;SDS011;32448;44.960;-0.698;2024-03-17T01:37:05;8.27;;;2.78;;
46717;SDS011;32448;44.960;-0.698;2024-03-17T01:39:31;5.57;;;2.53;;
46717;SDS011;32448;44.960;-0.698;2024-03-17T01:41:58;6.57;;;2.67;;
46717;SDS011;32448;44.960;-0.698;2024-03-17T01:44:27;5.80;;;2.85;;
46717;SDS011;32448;44.960;-0.698;2024-03-17T01:46:55;7.45;;;3.28;;
46717;SDS011;32448;44.960;-0.698;2024-03-17T01:49:22;6.00;;;2.70;;
46717;SDS011;32448;44.960;-0.698;2024-03-17T01:51:50;10.23;;;2.97;;
46717;SDS011;32448;44.960;-0.698;2024-03-17T01:54:16;5.97;;;3.00;;
46717;SDS011;32448;44.960;-0.698;2024-03-17T01:56:42;6.57;;;2.65;;
46717;SDS011;32448;44.960;-0.698;2024-03-17T01:59:09;4.72;;;2.70;;
46717;SDS011;32448;44.960;-0.698;2024-03-17T02:01:36;5.40;;;2.33;;
46717;SDS011;32448;44.960;-0.698;2024-03-17T02:04:03;7.55;;;2.53;;
46717;SDS011;32448;44.960;-0.698;2024-03-17T02:06:31;5.93;;;2.40;;
46717;SDS011;32448;44.960;-0.698;2024-03-17T02:08:56;8.40;;;2.80;;
46717;SDS011;32448;44.960;-0.698;2024-03-17T02:11:24;7.00;;;2.55;;
46717;SDS011;32448;44.960;-0.698;2024-03-17T02:13:54;7.78;;;2.72;;
46717;SDS011;32448;44.960;-0.698;2024-03-17T02:16:24;7.28;;;2.75;;
46717;SDS011;32448;44.960;-0.698;2024-03-17T02:18:54;6.75;;;2.97;;
46717;SDS011;32448;44.960;-0.698;2024-03-17T02:21:24;7.93;;;3.05;;
46717;SDS011;32448;44.960;-0.698;2024-03-17T02:23:53;6.18;;;2.65;;
46717;SDS011;32448;44.960;-0.698;2024-03-17T02:26:22;5.70;;;2.70;;
46717;SDS011;32448;44.960;-0.698;2024-03-17T02:28:49;6.93;;;2.70;;
46717;SDS011;32448;44.960;-0.698;2024-03-17T02:31:15;6.38;;;2.70;;
46717;SDS011;32448;44.960;-0.698;2024-03-17T02:33:42;8.95;;;2.47;;
46717;SDS011;32448;44.960;-0.698;2024-03-17T02:36:09;5.18;;;2.30;;
46717;SDS011;32448;44.960;-0.698;2024-03-17T02:38:37;5.85;;;2.30;;
46717;SDS011;32448;44.960;-0.698;2024-03-17T02:41:23;7.20;;;2.75;;
46717;SDS011;32448;44.960;-0.698;2024-03-17T02:43:49;5.47;;;2.50;;
46717;SDS011;32448;44.960;-0.698;2024-03-17T02:46:16;3.72;;;2.10;;
46717;SDS011;32448;44.960;-0.698;2024-03-17T02:48:44;5.68;;;2.30;;
46717;SDS011;32448;44.960;-0.698;2024-03-17T02:51:17;6.45;;;2.28;;
46717;SDS011;32448;44.960;-0.698;2024-03-17T02:53:45;7.57;;;2.45;;
46717;SDS011;32448;44.960;-0.698;2024-03-17T02:56:12;5.13;;;2.70;;
46717;SDS011;32448;44.960;-0.698;2024-03-17T02:58:38;6.15;;;2.47;;
46717;SDS011;32448;44.960;-0.698;2024-03-17T03:01:05;7.38;;;3.13;;
46717;SDS011;32448;44.960;-0.698;2024-03-17T03:03:31;6.00;;;2.42;;
46717;SDS011;32448;44.960;-0.698;2024-03-17T03:05:58;6.38;;;2.83;;
46717;SDS011;32448;44.960;-0.698;2024-03-17T03:08:26;5.40;;;2.30;;
46717;SDS011;32448;44.960;-0.698;2024-03-17T03:10:52;6.38;;;2.95;;
46717;SDS011;32448;44.960;-0.698;2024-03-17T03:13:18;8.27;;;2.63;;
46717;SDS011;32448;44.960;-0.698;2024-03-17T03:15:46;6.65;;;2.78;;
46717;SDS011;32448;44.960;-0.698;2024-03-17T03:18:13;7.47;;;2.42;;
46717;SDS011;32448;44.960;-0.698;2024-03-17T03:20:39;4.40;;;1.98;;
46717;SDS011;32448;44.960;-0.698;2024-03-17T03:23:05;6.70;;;2.20;;
46717;SDS011;32448;44.960;-0.698;2024-03-17T03:25:31;8.07;;;2.40;;
46717;SDS011;32448;44.960;-0.698;2024-03-17T03:27:57;5.47;;;2.15;;
46717;SDS011;32448;44.960;-0.698;2024-03-17T03:30:23;4.40;;;2.15;;
46717;SDS011;32448;44.960;-0.698;2024-03-17T03:32:49;3.95;;;2.08;;
46717;SDS011;32448;44.960;-0.698;2024-03-17T03:35:15;5.95;;;2.15;;
46717;SDS011;32448;44.960;-0.698;2024-03-17T03:37:41;7.88;;;2.40;;
46717;SDS011;32448;44.960;-0.698;2024-03-17T03:40:07;7.38;;;2.30;;
46717;SDS011;32448;44.960;-0.698;2024-03-17T03:42:43;5.57;;;2.17;;
46717;SDS011;32448;44.960;-0.698;2024-03-17T03:45:10;4.93;;;2.42;;
46717;SDS011;32448;44.960;-0.698;2024-03-17T03:47:42;6.88;;;2.20;;
46717;SDS011;32448;44.960;-0.698;2024-03-17T03:50:08;6.18;;;2.50;;
46717;SDS011;32448;44.960;-0.698;2024-03-17T03:52:35;7.00;;;2.45;;
46717;SDS011;32448;44.960;-0.698;2024-03-17T03:55:02;6.68;;;2.88;;
46717;SDS011;32448;44.960;-0.698;2024-03-17T03:57:33;6.20;;;2.33;;
46717;SDS011;32448;44.960;-0.698;2024-03-17T03:59:59;7.20;;;2.20;;
46717;SDS011;32448;44.960;-0.698;2024-03-17T04:02:25;7.18;;;2.45;;
46717;SDS011;32448;44.960;-0.698;2024-03-17T04:04:56;6.00;;;2.30;;
46717;SDS011;32448;44.960;-0.698;2024-03-17T04:07:23;4.68;;;2.10;;
46717;SDS011;32448;44.960;-0.698;2024-03-17T04:09:49;4.18;;;1.90;;
46717;SDS011;32448;44.960;-0.698;2024-03-17T04:12:15;5.70;;;2.05;;
46717;SDS011;32448;44.960;-0.698;2024-03-17T04:14:41;6.25;;;2.25;;
46717;SDS011;32448;44.960;-0.698;2024-03-17T04:17:07;3.65;;;2.13;;
46717;SDS011;32448;44.960;-0.698;2024-03-17T04:19:33;5.50;;;2.30;;
46717;SDS011;32448;44.960;-0.698;2024-03-17T04:21:58;4.20;;;1.83;;
46717;SDS011;32448;44.960;-0.698;2024-03-17T04:24:24;7.45;;;2.15;;
46717;SDS011;32448;44.960;-0.698;2024-03-17T04:26:50;5.32;;;2.13;;
46717;SDS011;32448;44.960;-0.698;2024-03-17T04:29:16;4.50;;;2.55;;
46717;SDS011;32448;44.960;-0.698;2024-03-17T04:31:42;3.92;;;2.20;;
46717;SDS011;32448;44.960;-0.698;2024-03-17T04:34:08;6.03;;;2.00;;
46717;SDS011;32448;44.960;-0.698;2024-03-17T04:36:34;7.03;;;2.63;;
46717;SDS011;32448;44.960;-0.698;2024-03-17T04:39:00;3.40;;;1.88;;
46717;SDS011;32448;44.960;-0.698;2024-03-17T04:41:25;6.05;;;2.30;;
46717;SDS011;32448;44.960;-0.698;2024-03-17T04:43:51;5.88;;;2.05;;
46717;SDS011;32448;44.960;-0.698;2024-03-17T04:46:18;4.72;;;1.90;;
46717;SDS011;32448;44.960;-0.698;2024-03-17T04:48:44;6.60;;;2.17;;
46717;SDS011;32448;44.960;-0.698;2024-03-17T04:51:14;4.15;;;1.88;;
46717;SDS011;32448;44.960;-0.698;2024-03-17T04:53:41;6.05;;;2.00;;
46717;SDS011;32448;44.960;-0.698;2024-03-17T04:56:07;4.60;;;1.95;;
46717;SDS011;32448;44.960;-0.698;2024-03-17T04:58:33;7.13;;;2.10;;
46717;SDS011;32448;44.960;-0.698;2024-03-17T05:01:08;4.90;;;2.08;;
46717;SDS011;32448;44.960;-0.698;2024-03-17T05:03:34;6.07;;;2.20;;
46717;SDS011;32448;44.960;-0.698;2024-03-17T05:06:00;7.45;;;2.05;;
46717;SDS011;32448;44.960;-0.698;2024-03-17T05:08:28;5.68;;;1.85;;
46717;SDS011;32448;44.960;-0.698;2024-03-17T05:11:01;6.60;;;2.53;;
46717;SDS011;32448;44.960;-0.698;2024-03-17T05:13:31;4.38;;;2.10;;
46717;SDS011;32448;44.960;-0.698;2024-03-17T05:15:58;5.78;;;2.10;;
46717;SDS011;32448;44.960;-0.698;2024-03-17T05:18:25;6.78;;;2.25;;
46717;SDS011;32448;44.960;-0.698;2024-03-17T05:21:02;6.43;;;2.40;;
46717;SDS011;32448;44.960;-0.698;2024-03-17T05:23:29;5.43;;;2.22;;
46717;SDS011;32448;44.960;-0.698;2024-03-17T05:25:56;4.40;;;1.90;;
46717;SDS011;32448;44.960;-0.698;2024-03-17T05:28:23;7.32;;;2.22;;
46717;SDS011;32448;44.960;-0.698;2024-03-17T05:30:50;3.22;;;1.80;;
46717;SDS011;32448;44.960;-0.698;2024-03-17T05:33:16;3.58;;;1.98;;
46717;SDS011;32448;44.960;-0.698;2024-03-17T05:35:49;5.63;;;2.33;;
46717;SDS011;32448;44.960;-0.698;2024-03-17T05:38:19;4.95;;;2.20;;
46717;SDS011;32448;44.960;-0.698;2024-03-17T05:41:02;5.45;;;2.15;;
46717;SDS011;32448;44.960;-0.698;2024-03-17T05:43:30;3.58;;;1.85;;
46717;SDS011;32448;44.960;-0.698;2024-03-17T05:46:06;4.95;;;2.13;;
46717;SDS011;32448;44.960;-0.698;2024-03-17T05:48:34;5.53;;;2.20;;
46717;SDS011;32448;44.960;-0.698;2024-03-17T05:51:04;5.65;;;1.98;;
46717;SDS011;32448;44.960;-0.698;2024-03-17T05:53:34;4.47;;;1.92;;
46717;SDS011;32448;44.960;-0.698;2024-03-17T05:56:01;6.95;;;1.98;;
46717;SDS011;32448;44.960;-0.698;2024-03-17T05:58:28;7.28;;;2.50;;
46717;SDS011;32448;44.960;-0.698;2024-03-17T06:00:54;5.88;;;2.10;;
46717;SDS011;32448;44.960;-0.698;2024-03-17T06:03:20;6.20;;;2.10;;
46717;SDS011;32448;44.960;-0.698;2024-03-17T06:05:47;4.50;;;1.92;;
46717;SDS011;32448;44.960;-0.698;2024-03-17T06:08:14;10.98;;;3.05;;
46717;SDS011;32448;44.960;-0.698;2024-03-17T06:10:44;6.60;;;2.20;;
46717;SDS011;32448;44.960;-0.698;2024-03-17T06:13:14;4.43;;;1.90;;
46717;SDS011;32448;44.960;-0.698;2024-03-17T06:15:43;6.82;;;2.22;;
46717;SDS011;32448;44.960;-0.698;2024-03-17T06:18:12;4.30;;;2.13;;
46717;SDS011;32448;44.960;-0.698;2024-03-17T06:20:40;5.65;;;2.78;;
46717;SDS011;32448;44.960;-0.698;2024-03-17T06:23:13;5.35;;;1.90;;
46717;SDS011;32448;44.960;-0.698;2024-03-17T06:25:42;5.60;;;1.80;;
46717;SDS011;32448;44.960;-0.698;2024-03-17T06:28:08;5.32;;;2.28;;
46717;SDS011;32448;44.960;-0.698;2024-03-17T06:30:39;4.57;;;1.70;;
46717;SDS011;32448;44.960;-0.698;2024-03-17T06:33:12;4.03;;;1.70;;
46717;SDS011;32448;44.960;-0.698;2024-03-17T06:35:39;6.82;;;2.45;;
46717;SDS011;32448;44.960;-0.698;2024-03-17T06:38:05;4.15;;;1.67;;
46717;SDS011;32448;44.960;-0.698;2024-03-17T06:40:37;3.65;;;1.70;;
46717;SDS011;32448;44.960;-0.698;2024-03-17T06:43:03;2.60;;;1.45;;
46717;SDS011;32448;44.960;-0.698;2024-03-17T06:45:29;4.57;;;2.10;;
46717;SDS011;32448;44.960;-0.698;2024-03-17T06:47:55;3.00;;;1.70;;
46717;SDS011;32448;44.960;-0.698;2024-03-17T06:50:21;3.45;;;1.42;;
46717;SDS011;32448;44.960;-0.698;2024-03-17T06:52:48;4.85;;;1.60;;
46717;SDS011;32448;44.960;-0.698;2024-03-17T06:55:14;4.13;;;1.52;;
46717;SDS011;32448;44.960;-0.698;2024-03-17T06:57:43;5.15;;;1.60;;
46717;SDS011;32448;44.960;-0.698;2024-03-17T07:00:14;3.72;;;1.58;;
46717;SDS011;32448;44.960;-0.698;2024-03-17T07:02:42;7.38;;;2.08;;
46717;SDS011;32448;44.960;-0.698;2024-03-17T07:05:11;6.07;;;1.95;;
46717;SDS011;32448;44.960;-0.698;2024-03-17T07:07:43;9.10;;;2.00;;
46717;SDS011;32448;44.960;-0.698;2024-03-17T07:10:10;3.60;;;2.00;;
46717;SDS011;32448;44.960;-0.698;2024-03-17T07:12:40;8.85;;;1.92;;
46717;SDS011;32448;44.960;-0.698;2024-03-17T07:15:07;5.28;;;1.75;;
46717;SDS011;32448;44.960;-0.698;2024-03-17T07:17:33;5.63;;;1.98;;
46717;SDS011;32448;44.960;-0.698;2024-03-17T07:20:00;5.78;;;1.80;;
46717;SDS011;32448;44.960;-0.698;2024-03-17T07:22:26;3.50;;;1.55;;
46717;SDS011;32448;44.960;-0.698;2024-03-17T07:24:53;4.57;;;1.60;;
46717;SDS011;32448;44.960;-0.698;2024-03-17T07:27:28;4.07;;;1.58;;
46717;SDS011;32448;44.960;-0.698;2024-03-17T07:29:54;5.07;;;2.03;;
46717;SDS011;32448;44.960;-0.698;2024-03-17T07:32:20;7.53;;;1.90;;
46717;SDS011;32448;44.960;-0.698;2024-03-17T07:34:48;4.40;;;1.77;;
46717;SDS011;32448;44.960;-0.698;2024-03-17T07:37:15;5.18;;;2.13;;
46717;SDS011;32448;44.960;-0.698;2024-03-17T07:39:41;3.22;;;1.75;;
46717;SDS011;32448;44.960;-0.698;2024-03-17T07:42:07;7.55;;;2.40;;
46717;SDS011;32448;44.960;-0.698;2024-03-17T07:44:33;7.63;;;2.45;;
46717;SDS011;32448;44.960;-0.698;2024-03-17T07:47:00;5.90;;;2.20;;
46717;SDS011;32448;44.960;-0.698;2024-03-17T07:49:26;4.60;;;2.20;;
46717;SDS011;32448;44.960;-0.698;2024-03-17T07:51:52;6.50;;;2.25;;
46717;SDS011;32448;44.960;-0.698;2024-03-17T07:54:18;5.70;;;2.15;;
46717;SDS011;32448;44.960;-0.698;2024-03-17T07:56:45;5.18;;;2.17;;
46717;SDS011;32448;44.960;-0.698;2024-03-17T07:59:11;5.85;;;2.00;;
46717;SDS011;32448;44.960;-0.698;2024-03-17T08:01:41;5.75;;;2.10;;
46717;SDS011;32448;44.960;-0.698;2024-03-17T08:04:11;5.97;;;2.58;;
46717;SDS011;32448;44.960;-0.698;2024-03-17T08:06:40;6.32;;;2.20;;
46717;SDS011;32448;44.960;-0.698;2024-03-17T08:09:10;6.35;;;2.30;;
46717;SDS011;32448;44.960;-0.698;2024-03-17T08:11:37;4.40;;;1.80;;
46717;SDS011;32448;44.960;-0.698;2024-03-17T08:14:04;5.90;;;2.35;;
46717;SDS011;32448;44.960;-0.698;2024-03-17T08:16:31;7.90;;;2.72;;
46717;SDS011;32448;44.960;-0.698;2024-03-17T08:18:57;10.65;;;2.72;;
46717;SDS011;32448;44.960;-0.698;2024-03-17T08:21:23;6.32;;;2.13;;
46717;SDS011;32448;44.960;-0.698;2024-03-17T08:23:49;6.03;;;2.20;;
46717;SDS011;32448;44.960;-0.698;2024-03-17T08:26:15;4.95;;;2.05;;
46717;SDS011;32448;44.960;-0.698;2024-03-17T08:28:41;6.00;;;2.40;;
46717;SDS011;32448;44.960;-0.698;2024-03-17T08:31:07;5.05;;;2.20;;
46717;SDS011;32448;44.960;-0.698;2024-03-17T08:33:33;6.93;;;2.50;;
46717;SDS011;32448;44.960;-0.698;2024-03-17T08:38:35;6.90;;;2.50;;
46717;SDS011;32448;44.960;-0.698;2024-03-17T08:41:02;6.40;;;2.60;;
46717;SDS011;32448;44.960;-0.698;2024-03-17T08:43:32;6.00;;;2.40;;
46717;SDS011;32448;44.960;-0.698;2024-03-17T08:46:00;7.53;;;2.72;;
46717;SDS011;32448;44.960;-0.698;2024-03-17T08:48:37;7.30;;;2.88;;
46717;SDS011;32448;44.960;-0.698;2024-03-17T08:51:05;6.05;;;2.53;;
46717;SDS011;32448;44.960;-0.698;2024-03-17T08:53:32;7.55;;;2.33;;
46717;SDS011;32448;44.960;-0.698;2024-03-17T08:55:58;4.93;;;2.78;;
46717;SDS011;32448;44.960;-0.698;2024-03-17T08:58:25;8.00;;;2.35;;
46717;SDS011;32448;44.960;-0.698;2024-03-17T09:00:51;5.55;;;2.58;;
46717;SDS011;32448;44.960;-0.698;2024-03-17T09:03:18;7.15;;;2.72;;
46717;SDS011;32448;44.960;-0.698;2024-03-17T09:05:45;7.70;;;3.08;;
46717;SDS011;32448;44.960;-0.698;2024-03-17T09:08:21;6.28;;;2.95;;
46717;SDS011;32448;44.960;-0.698;2024-03-17T09:10:48;8.48;;;2.83;;
46717;SDS011;32448;44.960;-0.698;2024-03-17T09:13:16;8.65;;;2.95;;
46717;SDS011;32448;44.960;-0.698;2024-03-17T09:15:53;6.72;;;2.50;;
46717;SDS011;32448;44.960;-0.698;2024-03-17T09:18:22;6.68;;;2.60;;
46717;SDS011;32448;44.960;-0.698;2024-03-17T09:23:28;6.15;;;2.78;;
46717;SDS011;32448;44.960;-0.698;2024-03-17T09:25:58;6.20;;;3.22;;
46717;SDS011;32448;44.960;-0.698;2024-03-17T09:28:26;9.50;;;2.85;;
46717;SDS011;32448;44.960;-0.698;2024-03-17T09:30:53;8.98;;;3.08;;
46717;SDS011;32448;44.960;-0.698;2024-03-17T09:33:24;6.93;;;3.00;;
46717;SDS011;32448;44.960;-0.698;2024-03-17T09:36:00;6.38;;;2.72;;
46717;SDS011;32448;44.960;-0.698;2024-03-17T09:38:33;7.40;;;2.88;;
46717;SDS011;32448;44.960;-0.698;2024-03-17T09:41:00;8.68;;;3.53;;
46717;SDS011;32448;44.960;-0.698;2024-03-17T09:43:27;7.10;;;2.90;;
46717;SDS011;32448;44.960;-0.698;2024-03-17T09:45:53;6.93;;;3.08;;
46717;SDS011;32448;44.960;-0.698;2024-03-17T09:48:26;8.10;;;2.90;;
46717;SDS011;32448;44.960;-0.698;2024-03-17T09:53:25;7.80;;;2.90;;
46717;SDS011;32448;44.960;-0.698;2024-03-17T09:55:52;5.90;;;3.05;;
46717;SDS011;32448;44.960;-0.698;2024-03-17T09:58:22;8.40;;;3.15;;
46717;SDS011;32448;44.960;-0.698;2024-03-17T10:00:48;4.68;;;2.83;;
46717;SDS011;32448;44.960;-0.698;2024-03-17T10:06:14;7.03;;;3.03;;
46717;SDS011;32448;44.960;-0.698;2024-03-17T10:11:19;10.57;;;3.25;;
46717;SDS011;32448;44.960;-0.698;2024-03-17T10:16:30;8.45;;;2.97;;
46717;SDS011;32448;44.960;-0.698;2024-03-17T10:21:33;11.25;;;3.63;;
46717;SDS011;32448;44.960;-0.698;2024-03-17T10:24:09;9.18;;;3.30;;
46717;SDS011;32448;44.960;-0.698;2024-03-17T10:26:41;7.93;;;3.05;;
46717;SDS011;32448;44.960;-0.698;2024-03-17T10:29:18;7.75;;;3.20;;
46717;SDS011;32448;44.960;-0.698;2024-03-17T10:32:32;8.73;;;3.85;;
46717;SDS011;32448;44.960;-0.698;2024-03-17T10:34:40;8.75;;;3.67;;
46717;SDS011;32448;44.960;-0.698;2024-03-17T10:39:37;10.07;;;3.30;;
46717;SDS011;32448;44.960;-0.698;2024-03-17T10:42:05;10.70;;;3.30;;
46717;SDS011;32448;44.960;-0.698;2024-03-17T10:44:32;8.55;;;3.88;;
46717;SDS011;32448;44.960;-0.698;2024-03-17T10:47:00;7.60;;;3.15;;
46717;SDS011;32448;44.960;-0.698;2024-03-17T10:49:29;11.60;;;3.88;;
46717;SDS011;32448;44.960;-0.698;2024-03-17T10:51:57;8.70;;;3.35;;
46717;SDS011;32448;44.960;-0.698;2024-03-17T10:54:36;11.75;;;3.25;;
46717;SDS011;32448;44.960;-0.698;2024-03-17T10:59:48;7.97;;;3.30;;
46717;SDS011;32448;44.960;-0.698;2024-03-17T11:04:51;10.00;;;3.40;;
46717;SDS011;32448;44.960;-0.698;2024-03-17T11:07:19;9.95;;;3.55;;
46717;SDS011;32448;44.960;-0.698;2024-03-17T11:09:46;7.97;;;3.30;;
46717;SDS011;32448;44.960;-0.698;2024-03-17T11:17:50;6.22;;;2.67;;
46717;SDS011;32448;44.960;-0.698;2024-03-17T11:20:24;7.40;;;2.65;;
46717;SDS011;32448;44.960;-0.698;2024-03-17T11:22:53;9.68;;;2.92;;
46717;SDS011;32448;44.960;-0.698;2024-03-17T11:27:59;10.98;;;3.17;;
46717;SDS011;32448;44.960;-0.698;2024-03-17T11:39:02;9.85;;;3.97;;
46717;SDS011;32448;44.960;-0.698;2024-03-17T11:41:40;8.95;;;3.10;;
46717;SDS011;32448;44.960;-0.698;2024-03-17T11:44:13;8.82;;;2.55;;
46717;SDS011;32448;44.960;-0.698;2024-03-17T11:46:40;6.03;;;2.72;;
46717;SDS011;32448;44.960;-0.698;2024-03-17T11:49:20;8.70;;;3.00;;
46717;SDS011;32448;44.960;-0.698;2024-03-17T11:51:52;5.82;;;2.50;;
46717;SDS011;32448;44.960;-0.698;2024-03-17T11:54:19;7.93;;;3.03;;
46717;SDS011;32448;44.960;-0.698;2024-03-17T11:56:51;8.48;;;3.10;;
46717;SDS011;32448;44.960;-0.698;2024-03-17T11:59:17;10.68;;;2.95;;
46717;SDS011;32448;44.960;-0.698;2024-03-17T12:01:45;7.20;;;2.90;;
46717;SDS011;32448;44.960;-0.698;2024-03-17T12:04:19;6.55;;;2.40;;
46717;SDS011;32448;44.960;-0.698;2024-03-17T12:09:19;7.80;;;2.75;;
46717;SDS011;32448;44.960;-0.698;2024-03-17T12:11:50;5.88;;;2.20;;
46717;SDS011;32448;44.960;-0.698;2024-03-17T12:14:29;6.75;;;2.28;;
46717;SDS011;32448;44.960;-0.698;2024-03-17T12:19:29;8.63;;;2.35;;
46717;SDS011;32448;44.960;-0.698;2024-03-17T12:21:56;5.05;;;2.28;;
46717;SDS011;32448;44.960;-0.698;2024-03-17T12:24:24;10.05;;;2.50;;
46717;SDS011;32448;44.960;-0.698;2024-03-17T12:26:52;6.85;;;2.60;;
46717;SDS011;32448;44.960;-0.698;2024-03-17T12:31:50;5.18;;;2.15;;
46717;SDS011;32448;44.960;-0.698;2024-03-17T12:34:17;5.60;;;2.08;;
46717;SDS011;32448;44.960;-0.698;2024-03-17T12:36:44;5.15;;;2.03;;
46717;SDS011;32448;44.960;-0.698;2024-03-17T12:39:23;6.85;;;2.17;;
46717;SDS011;32448;44.960;-0.698;2024-03-17T12:42:06;5.30;;;2.00;;
46717;SDS011;32448;44.960;-0.698;2024-03-17T12:44:34;3.95;;;2.08;;
46717;SDS011;32448;44.960;-0.698;2024-03-17T12:47:07;5.93;;;1.77;;
46717;SDS011;32448;44.960;-0.698;2024-03-17T12:49:53;5.18;;;2.13;;
46717;SDS011;32448;44.960;-0.698;2024-03-17T12:52:21;6.07;;;2.63;;
46717;SDS011;32448;44.960;-0.698;2024-03-17T12:57:49;4.93;;;1.65;;
46717;SDS011;32448;44.960;-0.698;2024-03-17T13:00:35;4.25;;;1.70;;
46717;SDS011;32448;44.960;-0.698;2024-03-17T13:03:04;5.38;;;1.83;;
46717;SDS011;32448;44.960;-0.698;2024-03-17T13:05:31;5.25;;;1.95;;
46717;SDS011;32448;44.960;-0.698;2024-03-17T13:07:58;2.83;;;1.30;;
46717;SDS011;32448;44.960;-0.698;2024-03-17T13:10:25;7.05;;;2.22;;
46717;SDS011;32448;44.960;-0.698;2024-03-17T13:12:59;4.22;;;1.50;;
46717;SDS011;32448;44.960;-0.698;2024-03-17T13:15:34;4.63;;;1.45;;
46717;SDS011;32448;44.960;-0.698;2024-03-17T13:18:04;6.20;;;1.70;;
46717;SDS011;32448;44.960;-0.698;2024-03-17T13:20:33;4.88;;;1.90;;
46717;SDS011;32448;44.960;-0.698;2024-03-17T13:23:00;3.42;;;1.40;;
46717;SDS011;32448;44.960;-0.698;2024-03-17T13:25:27;3.25;;;1.42;;
46717;SDS011;32448;44.960;-0.698;2024-03-17T13:28:02;4.75;;;1.77;;
46717;SDS011;32448;44.960;-0.698;2024-03-17T13:30:29;4.47;;;1.20;;
46717;SDS011;32448;44.960;-0.698;2024-03-17T13:32:55;2.72;;;1.23;;
46717;SDS011;32448;44.960;-0.698;2024-03-17T13:35:26;2.28;;;1.20;;
46717;SDS011;32448;44.960;-0.698;2024-03-17T13:37:52;2.42;;;1.10;;
46717;SDS011;32448;44.960;-0.698;2024-03-17T13:40:25;4.63;;;1.20;;
46717;SDS011;32448;44.960;-0.698;2024-03-17T13:42:52;2.42;;;1.15;;
46717;SDS011;32448;44.960;-0.698;2024-03-17T13:45:19;3.33;;;1.20;;
46717;SDS011;32448;44.960;-0.698;2024-03-17T13:47:50;2.10;;;1.05;;
46717;SDS011;32448;44.960;-0.698;2024-03-17T13:50:21;2.78;;;1.27;;
46717;SDS011;32448;44.960;-0.698;2024-03-17T13:52:47;2.70;;;1.40;;
46717;SDS011;32448;44.960;-0.698;2024-03-17T13:55:14;1.95;;;1.05;;
46717;SDS011;32448;44.960;-0.698;2024-03-17T13:57:45;2.97;;;1.23;;
46717;SDS011;32448;44.960;-0.698;2024-03-17T14:00:13;3.72;;;1.30;;
46717;SDS011;32448;44.960;-0.698;2024-03-17T14:02:45;3.95;;;1.52;;
46717;SDS011;32448;44.960;-0.698;2024-03-17T14:05:18;1.50;;;1.15;;
46717;SDS011;32448;44.960;-0.698;2024-03-17T14:07:46;2.00;;;1.10;;
46717;SDS011;32448;44.960;-0.698;2024-03-17T14:10:14;3.00;;;1.48;;
46717;SDS011;32448;44.960;-0.698;2024-03-17T14:12:42;2.10;;;1.20;;
46717;SDS011;32448;44.960;-0.698;2024-03-17T14:15:09;2.47;;;1.00;;
46717;SDS011;32448;44.960;-0.698;2024-03-17T14:17:40;2.05;;;1.05;;
46717;SDS011;32448;44.960;-0.698;2024-03-17T14:20:07;3.67;;;1.02;;
46717;SDS011;32448;44.960;-0.698;2024-03-17T14:22:35;3.20;;;1.30;;
46717;SDS011;32448;44.960;-0.698;2024-03-17T14:25:02;2.20;;;1.30;;
46717;SDS011;32448;44.960;-0.698;2024-03-17T14:27:30;2.30;;;1.40;;
46717;SDS011;32448;44.960;-0.698;2024-03-17T14:29:55;3.30;;;1.02;;
46717;SDS011;32448;44.960;-0.698;2024-03-17T14:32:21;2.63;;;1.10;;
46717;SDS011;32448;44.960;-0.698;2024-03-17T14:34:47;2.65;;;1.00;;
46717;SDS011;32448;44.960;-0.698;2024-03-17T14:37:13;2.63;;;1.15;;
46717;SDS011;32448;44.960;-0.698;2024-03-17T14:39:39;2.20;;;1.10;;
46717;SDS011;32448;44.960;-0.698;2024-03-17T14:42:06;2.78;;;1.20;;
46717;SDS011;32448;44.960;-0.698;2024-03-17T14:44:34;3.42;;;1.30;;
46717;SDS011;32448;44.960;-0.698;2024-03-17T14:47:03;2.97;;;0.90;;
46717;SDS011;32448;44.960;-0.698;2024-03-17T14:49:33;1.92;;;1.05;;
46717;SDS011;32448;44.960;-0.698;2024-03-17T14:51:59;3.38;;;0.80;;
46717;SDS011;32448;44.960;-0.698;2024-03-17T14:54:25;2.38;;;1.00;;
46717;SDS011;32448;44.960;-0.698;2024-03-17T14:56:51;1.33;;;0.80;;
46717;SDS011;32448;44.960;-0.698;2024-03-17T14:59:19;2.50;;;1.00;;
46717;SDS011;32448;44.960;-0.698;2024-03-17T15:01:45;2.05;;;0.90;;
46717;SDS011;32448;44.960;-0.698;2024-03-17T15:04:13;2.78;;;0.85;;
46717;SDS011;32448;44.960;-0.698;2024-03-17T15:06:40;2.50;;;1.20;;
46717;SDS011;32448;44.960;-0.698;2024-03-17T15:09:06;2.42;;;0.80;;
46717;SDS011;32448;44.960;-0.698;2024-03-17T15:11:33;3.92;;;0.90;;
46717;SDS011;32448;44.960;-0.698;2024-03-17T15:13:59;2.33;;;0.90;;
46717;SDS011;32448;44.960;-0.698;2024-03-17T15:16:25;2.53;;;0.90;;
46717;SDS011;32448;44.960;-0.698;2024-03-17T15:18:51;3.03;;;1.17;;
46717;SDS011;32448;44.960;-0.698;2024-03-17T15:21:17;1.35;;;0.70;;
46717;SDS011;32448;44.960;-0.698;2024-03-17T15:23:42;2.33;;;0.85;;
46717;SDS011;32448;44.960;-0.698;2024-03-17T15:26:08;1.42;;;0.85;;
46717;SDS011;32448;44.960;-0.698;2024-03-17T15:28:34;1.05;;;0.70;;
46717;SDS011;32448;44.960;-0.698;2024-03-17T15:31:05;1.67;;;0.70;;
46717;SDS011;32448;44.960;-0.698;2024-03-17T15:33:34;2.08;;;0.70;;